Time;durP1;ratioP1;P1;durP2;ratioP2;P2;SDS_P1;SDS_P2;PMS_P1;PMS_P2;Temp;Humidity;BMP_temperature;BMP_pressure;BME280_temperature;BME280_humidity;BME280_pressure;Samples;Min_cycle;Max_cycle;Signal;HPM_P1;HPM_P2
2022/05/03 00:02:27;;;;;;;6.18;4.80;;;;;;;;;;5051170;28;20071;-26
2022/05/03 00:05:07;;;;;;;6.70;4.40;;;;;;;;;;5051180;28;20047;-25
2022/05/03 00:07:52;;;;;;;6.57;5.00;;;;;;;;;;5051169;28;20505;-26
2022/05/03 00:10:23;;;;;;;4.60;3.72;;;;;;;;;;5051837;28;20048;-26
2022/05/03 00:12:55;;;;;;;5.60;3.70;;;;;;;;;;5054644;28;20037;-25
2022/05/03 00:15:22;;;;;;;5.05;4.55;;;;;;;;;;5054612;28;20433;-25
2022/05/03 00:17:49;;;;;;;6.07;4.53;;;;;;;;;;5054807;28;20091;-26
2022/05/03 00:20:15;;;;;;;6.65;4.50;;;;;;;;;;5054962;28;20048;-26
2022/05/03 00:22:42;;;;;;;7.57;5.10;;;;;;;;;;5055035;28;20033;-25
2022/05/03 00:25:08;;;;;;;5.32;4.82;;;;;;;;;;5054547;28;20048;-25
2022/05/03 00:27:34;;;;;;;5.28;4.30;;;;;;;;;;5054815;28;20047;-25
2022/05/03 00:30:01;;;;;;;6.47;4.80;;;;;;;;;;5054607;28;20044;-27
2022/05/03 00:32:27;;;;;;;6.88;5.40;;;;;;;;;;5054788;28;20449;-24
2022/05/03 00:34:54;;;;;;;6.57;4.68;;;;;;;;;;5054513;28;20527;-27
2022/05/03 00:37:20;;;;;;;7.00;5.05;;;;;;;;;;5054136;28;20048;-25
2022/05/03 00:39:46;;;;;;;5.22;4.28;;;;;;;;;;5054748;28;20033;-25
2022/05/03 00:42:23;;;;;;;6.45;4.60;;;;;;;;;;5054290;28;20040;-24
2022/05/03 00:45:05;;;;;;;5.93;4.30;;;;;;;;;;5054362;28;20071;-27
2022/05/03 00:47:50;;;;;;;6.03;4.88;;;;;;;;;;5054403;28;20041;-26
2022/05/03 00:50:25;;;;;;;6.53;4.65;;;;;;;;;;5054124;28;20124;-25
2022/05/03 00:52:51;;;;;;;6.60;5.05;;;;;;;;;;5054296;28;20041;-26
2022/05/03 00:55:36;;;;;;;7.50;5.35;;;;;;;;;;5054266;28;20041;-24
2022/05/03 00:58:16;;;;;;;6.70;4.90;;;;;;;;;;5054197;28;20080;-24
2022/05/03 01:01:11;;;;;;;5.68;4.50;;;;;;;;;;5054348;28;20041;-24
2022/05/03 01:03:55;;;;;;;7.00;5.25;;;;;;;;;;4999889;28;20056;-25
2022/05/03 01:06:21;;;;;;;6.75;4.68;;;;;;;;;;5053787;28;20079;-24
2022/05/03 01:08:47;;;;;;;8.02;5.20;;;;;;;;;;5052278;28;20056;-25
2022/05/03 01:11:20;;;;;;;5.80;5.10;;;;;;;;;;5053643;28;20095;-27
2022/05/03 01:13:52;;;;;;;6.35;5.10;;;;;;;;;;5053859;28;20045;-26
2022/05/03 01:16:32;;;;;;;5.93;5.18;;;;;;;;;;5053487;28;20080;-27
2022/05/03 01:19:10;;;;;;;6.80;4.88;;;;;;;;;;5053699;28;20037;-25
2022/05/03 01:21:59;;;;;;;6.93;5.07;;;;;;;;;;5053075;28;20482;-27
2022/05/03 01:24:34;;;;;;;6.95;5.55;;;;;;;;;;5053644;28;20064;-28
2022/05/03 01:27:19;;;;;;;6.53;5.10;;;;;;;;;;5070825;28;20166;-25
2022/05/03 01:29:46;;;;;;;6.90;5.40;;;;;;;;;;5073886;28;20037;-27
2022/05/03 01:32:12;;;;;;;7.57;6.03;;;;;;;;;;5055947;28;20673;-27
2022/05/03 01:34:41;;;;;;;6.95;5.32;;;;;;;;;;5073854;28;20044;-25
2022/05/03 01:37:07;;;;;;;6.90;5.55;;;;;;;;;;5073472;28;20493;-25
2022/05/03 01:39:52;;;;;;;5.72;5.13;;;;;;;;;;5073630;28;20036;-25
2022/05/03 01:42:26;;;;;;;6.68;5.43;;;;;;;;;;5055268;28;20040;-25
2022/05/03 01:45:07;;;;;;;6.00;5.15;;;;;;;;;;5073268;28;20132;-25
2022/05/03 01:47:49;;;;;;;5.75;5.10;;;;;;;;;;5073014;28;20044;-28
2022/05/03 01:50:33;;;;;;;8.00;6.20;;;;;;;;;;5073482;28;20055;-28
2022/05/03 01:52:59;;;;;;;;;;;;;;;;;;5073859;28;20494;-25
2022/05/03 01:55:37;;;;;;;5.72;5.10;;;;;;;;;;5073308;28;19916;-25
2022/05/03 01:58:03;;;;;;;7.07;5.90;;;;;;;;;;5073276;28;20032;-28
2022/05/03 02:00:32;;;;;;;6.85;6.15;;;;;;;;;;5073200;28;20115;-25
2022/05/03 02:03:10;;;;;;;7.50;5.72;;;;;;;;;;5073142;28;20070;-27
2022/05/03 02:05:55;;;;;;;7.65;5.50;;;;;;;;;;5072712;28;20055;-26
2022/05/03 02:08:23;;;;;;;7.07;5.68;;;;;;;;;;5073109;28;20043;-25
2022/05/03 02:11:02;;;;;;;9.90;5.72;;;;;;;;;;5072842;28;20041;-26
2022/05/03 02:14:43;;;;;;;8.80;5.97;;;;;;;;;;5072996;28;20070;-26
2022/05/03 02:16:23;;;;;;;6.53;5.35;;;;;;;;;;5072454;28;20051;-25
2022/05/03 02:19:18;;;;;;;7.85;6.20;;;;;;;;;;5072543;28;20036;-27
2022/05/03 02:22:05;;;;;;;8.55;5.70;;;;;;;;;;4983982;28;20050;-27
2022/05/03 02:24:36;;;;;;;8.63;6.78;;;;;;;;;;5072310;28;20056;-25
2022/05/03 02:27:08;;;;;;;9.35;7.28;;;;;;;;;;5072373;28;20066;-25
2022/05/03 02:29:39;;;;;;;7.40;6.55;;;;;;;;;;5072217;28;20041;-26
2022/05/03 02:32:06;;;;;;;8.88;6.78;;;;;;;;;;5072174;28;20040;-26
2022/05/03 02:34:36;;;;;;;8.43;6.35;;;;;;;;;;5071864;28;20086;-27
2022/05/03 02:37:18;;;;;;;8.93;6.88;;;;;;;;;;5072234;28;20431;-25
2022/05/03 02:39:47;;;;;;;8.15;6.72;;;;;;;;;;5072183;28;20086;-25
2022/05/03 02:42:14;;;;;;;8.30;6.30;;;;;;;;;;5054354;28;20036;-27
2022/05/03 02:44:40;;;;;;;7.53;6.45;;;;;;;;;;5072218;28;20036;-27
2022/05/03 02:47:10;;;;;;;10.80;7.00;;;;;;;;;;5072142;28;20090;-27
2022/05/03 02:49:42;;;;;;;10.32;8.13;;;;;;;;;;5054018;28;20036;-27
2022/05/03 02:52:17;;;;;;;8.02;6.53;;;;;;;;;;5071748;28;20056;-26
2022/05/03 02:54:58;;;;;;;10.52;7.40;;;;;;;;;;5071867;28;20058;-27
2022/05/03 02:57:39;;;;;;;8.95;6.47;;;;;;;;;;5072175;28;20436;-28
2022/05/03 03:03:04;;;;;;;9.43;7.43;;;;;;;;;;5072107;28;20490;-27
2022/05/03 03:05:31;;;;;;;9.52;7.82;;;;;;;;;;5071960;28;20036;-25
2022/05/03 03:08:04;;;;;;;10.68;8.38;;;;;;;;;;5054239;28;20409;-26
2022/05/03 03:10:53;;;;;;;8.32;7.43;;;;;;;;;;5053888;28;20076;-27
2022/05/03 03:13:38;;;;;;;12.38;8.20;;;;;;;;;;5059002;28;20102;-27
2022/05/03 03:16:05;;;;;;;10.13;7.93;;;;;;;;;;5053925;28;20482;-28
2022/05/03 03:18:33;;;;;;;9.38;7.57;;;;;;;;;;5071801;28;20494;-26
2022/05/03 03:21:00;;;;;;;10.48;8.48;;;;;;;;;;5071812;28;20056;-30
2022/05/03 03:23:29;;;;;;;10.43;8.43;;;;;;;;;;5071742;28;20490;-27
2022/05/03 03:25:55;;;;;;;10.10;8.75;;;;;;;;;;5071418;28;20115;-27
2022/05/03 03:28:22;;;;;;;11.98;9.27;;;;;;;;;;5071531;28;20048;-26
2022/05/03 03:30:52;;;;;;;12.88;9.88;;;;;;;;;;5071411;28;20136;-27
2022/05/03 03:33:19;;;;;;;11.63;8.63;;;;;;;;;;5071562;28;20502;-30
2022/05/03 03:35:46;;;;;;;11.65;9.48;;;;;;;;;;5071827;28;20040;-28
2022/05/03 03:38:15;;;;;;;14.07;10.70;;;;;;;;;;5071306;28;20070;-27
2022/05/03 03:40:48;;;;;;;11.90;9.23;;;;;;;;;;5071560;28;20062;-27
2022/05/03 03:43:15;;;;;;;12.10;9.47;;;;;;;;;;5071762;28;20532;-27
2022/05/03 03:45:41;;;;;;;13.23;9.98;;;;;;;;;;5074976;28;20276;-27
2022/05/03 03:48:08;;;;;;;10.93;9.05;;;;;;;;;;5075888;28;20440;-27
2022/05/03 03:50:37;;;;;;;12.05;9.40;;;;;;;;;;5075441;28;20075;-27
2022/05/03 03:53:03;;;;;;;11.00;8.75;;;;;;;;;;5075511;28;20494;-26
2022/05/03 03:55:29;;;;;;;14.02;9.98;;;;;;;;;;5075183;28;20090;-28
2022/05/03 03:57:57;;;;;;;13.98;10.63;;;;;;;;;;5075425;28;20367;-26
2022/05/03 04:00:23;;;;;;;10.38;8.77;;;;;;;;;;5074792;28;20093;-26
2022/05/03 04:02:50;;;;;;;13.05;10.15;;;;;;;;;;5074955;28;20048;-27
2022/05/03 04:05:18;;;;;;;13.73;10.65;;;;;;;;;;5057145;28;20053;-26
2022/05/03 04:07:44;;;;;;;12.40;10.23;;;;;;;;;;5075013;28;20066;-30
2022/05/03 04:10:10;;;;;;;14.07;10.93;;;;;;;;;;5074423;28;20063;-27
2022/05/03 04:12:37;;;;;;;15.18;10.73;;;;;;;;;;5056477;28;20044;-28
2022/05/03 04:15:03;;;;;;;11.95;10.38;;;;;;;;;;5075172;28;20072;-29
2022/05/03 04:17:29;;;;;;;12.55;10.90;;;;;;;;;;5075429;28;20089;-27
2022/05/03 04:19:55;;;;;;;12.77;9.43;;;;;;;;;;5074919;28;20041;-25
2022/05/03 04:22:29;;;;;;;14.50;10.57;;;;;;;;;;5074690;28;20501;-26
2022/05/03 04:24:55;;;;;;;14.27;10.90;;;;;;;;;;5074522;28;20044;-26
2022/05/03 04:27:22;;;;;;;12.43;9.88;;;;;;;;;;5074704;28;20094;-28
2022/05/03 04:29:48;;;;;;;13.57;10.73;;;;;;;;;;5074332;28;20044;-27
2022/05/03 04:32:15;;;;;;;14.10;10.85;;;;;;;;;;5074182;28;20051;-26
2022/05/03 04:34:41;;;;;;;14.13;10.20;;;;;;;;;;5074460;28;20432;-27
2022/05/03 04:37:07;;;;;;;13.55;10.73;;;;;;;;;;5074262;28;20040;-28
2022/05/03 04:39:33;;;;;;;13.10;10.85;;;;;;;;;;5074376;28;20037;-26
2022/05/03 04:41:59;;;;;;;11.73;10.27;;;;;;;;;;5074489;28;20391;-28
2022/05/03 04:44:25;;;;;;;14.55;11.13;;;;;;;;;;5056232;28;20043;-26
2022/05/03 04:46:51;;;;;;;11.65;9.98;;;;;;;;;;5056310;28;20115;-26
2022/05/03 04:49:18;;;;;;;11.90;9.70;;;;;;;;;;5072912;28;20036;-27
2022/05/03 04:51:44;;;;;;;12.32;10.70;;;;;;;;;;5072529;28;20041;-25
2022/05/03 04:54:10;;;;;;;16.23;11.95;;;;;;;;;;5073804;28;20040;-26
2022/05/03 04:56:36;;;;;;;12.05;10.63;;;;;;;;;;5073060;28;20036;-26
2022/05/03 04:59:02;;;;;;;12.52;10.30;;;;;;;;;;5073968;28;20040;-25
2022/05/03 05:01:29;;;;;;;13.88;10.73;;;;;;;;;;5073780;28;20045;-26
2022/05/03 05:03:55;;;;;;;16.67;11.63;;;;;;;;;;5073327;28;20047;-26
2022/05/03 05:06:21;;;;;;;15.90;12.10;;;;;;;;;;5073602;28;20424;-26
2022/05/03 05:08:48;;;;;;;13.63;11.07;;;;;;;;;;5073465;28;20048;-26
2022/05/03 05:11:14;;;;;;;12.30;10.80;;;;;;;;;;5073404;28;20119;-28
2022/05/03 05:13:41;;;;;;;15.43;11.48;;;;;;;;;;5073745;28;20479;-26
2022/05/03 05:16:08;;;;;;;12.93;11.50;;;;;;;;;;5055397;28;20067;-26
2022/05/03 05:18:34;;;;;;;13.50;11.80;;;;;;;;;;5073530;28;20426;-26
2022/05/03 05:21:00;;;;;;;12.77;10.32;;;;;;;;;;5064985;28;20111;-26
2022/05/03 05:23:26;;;;;;;13.50;11.13;;;;;;;;;;5052245;28;20521;-26
2022/05/03 05:25:54;;;;;;;13.80;11.43;;;;;;;;;;5052263;28;20422;-27
2022/05/03 05:28:22;;;;;;;14.63;11.85;;;;;;;;;;5052708;28;20094;-27
2022/05/03 05:30:50;;;;;;;16.05;13.70;;;;;;;;;;5050477;28;20074;-26
2022/05/03 05:33:16;;;;;;;17.52;13.85;;;;;;;;;;5053675;28;20147;-26
2022/05/03 05:35:42;;;;;;;16.15;13.00;;;;;;;;;;5051491;28;20128;-25
2022/05/03 05:38:08;;;;;;;17.60;14.68;;;;;;;;;;5050100;28;20045;-25
2022/05/03 05:40:34;;;;;;;17.65;14.50;;;;;;;;;;5050128;28;20116;-26
2022/05/03 05:43:01;;;;;;;17.58;14.57;;;;;;;;;;5048367;28;20094;-26
2022/05/03 05:45:28;;;;;;;25.13;18.42;;;;;;;;;;5046159;28;20045;-25
2022/05/03 05:47:56;;;;;;;17.75;15.18;;;;;;;;;;5049857;28;20344;-25
2022/05/03 05:50:22;;;;;;;17.83;13.93;;;;;;;;;;5050001;28;20387;-26
2022/05/03 05:55:33;;;;;;;21.70;15.88;;;;;;;;;;5061193;28;20043;-26
2022/05/03 05:58:00;;;;;;;19.77;15.20;;;;;;;;;;5072798;28;20040;-26
2022/05/03 06:00:26;;;;;;;21.55;15.57;;;;;;;;;;5054991;28;20046;-25
2022/05/03 06:02:52;;;;;;;17.42;14.98;;;;;;;;;;5039750;28;20045;-25
2022/05/03 06:05:18;;;;;;;21.27;16.25;;;;;;;;;;5052595;28;20055;-26
2022/05/03 06:07:44;;;;;;;27.23;19.95;;;;;;;;;;5051448;28;20076;-25
2022/05/03 06:10:10;;;;;;;25.33;18.95;;;;;;;;;;5052666;28;20037;-26
2022/05/03 06:12:36;;;;;;;24.08;19.38;;;;;;;;;;5052657;28;20067;-25
2022/05/03 06:15:03;;;;;;;31.95;23.75;;;;;;;;;;5064130;28;20040;-25
2022/05/03 06:17:29;;;;;;;29.95;22.65;;;;;;;;;;5072413;28;20162;-25
2022/05/03 06:19:55;;;;;;;29.17;22.02;;;;;;;;;;5072096;28;20106;-24
2022/05/03 06:22:22;;;;;;;35.47;26.50;;;;;;;;;;5072702;28;20492;-26
2022/05/03 06:24:48;;;;;;;47.40;30.40;;;;;;;;;;5072715;28;20051;-27
2022/05/03 06:27:15;;;;;;;38.05;27.50;;;;;;;;;;5054674;28;20076;-27
2022/05/03 06:29:47;;;;;;;40.33;26.85;;;;;;;;;;5130467;27;20379;-26
2022/05/03 06:32:14;;;;;;;46.10;30.48;;;;;;;;;;5129332;28;20043;-30
2022/05/03 06:34:40;;;;;;;37.80;29.58;;;;;;;;;;5130231;27;20070;-24
2022/05/03 06:37:06;;;;;;;46.45;32.45;;;;;;;;;;5130289;27;20122;-27
2022/05/03 06:39:35;;;;;;;43.50;31.65;;;;;;;;;;5129124;28;20048;-27
2022/05/03 06:42:04;;;;;;;43.05;31.13;;;;;;;;;;5129089;27;20078;-26
2022/05/03 06:44:30;;;;;;;42.67;30.42;;;;;;;;;;5129400;27;20118;-26
2022/05/03 06:46:56;;;;;;;39.58;30.13;;;;;;;;;;5130203;27;20035;-26
2022/05/03 06:49:22;;;;;;;42.60;29.08;;;;;;;;;;5129976;27;20050;-26
2022/05/03 06:51:48;;;;;;;39.47;28.83;;;;;;;;;;5130041;27;20062;-26
2022/05/03 06:54:14;;;;;;;41.40;30.17;;;;;;;;;;5130364;27;20043;-27
2022/05/03 06:56:40;;;;;;;39.15;31.23;;;;;;;;;;5112480;28;20059;-27
2022/05/03 06:59:07;;;;;;;38.03;28.85;;;;;;;;;;5130265;27;20050;-30
2022/05/03 07:01:35;;;;;;;42.47;30.20;;;;;;;;;;5129408;27;20497;-32
2022/05/03 07:04:01;;;;;;;42.55;29.48;;;;;;;;;;5112371;27;20397;-30
2022/05/03 07:06:27;;;;;;;40.20;30.55;;;;;;;;;;5090919;28;20039;-29
2022/05/03 07:08:54;;;;;;;37.33;28.30;;;;;;;;;;5111733;28;20048;-30
2022/05/03 07:11:20;;;;;;;38.25;28.88;;;;;;;;;;5108929;28;20040;-29
2022/05/03 07:13:48;;;;;;;38.70;29.15;;;;;;;;;;5090168;28;20050;-28
2022/05/03 07:16:14;;;;;;;43.78;29.40;;;;;;;;;;5108987;28;20040;-31
2022/05/03 07:24:11;;;;;;;39.35;28.63;;;;;;;;;;5129211;27;20051;-33
2022/05/03 07:26:40;;;;;;;40.50;29.02;;;;;;;;;;5129310;27;20047;-29
2022/05/03 07:29:07;;;;;;;38.50;26.45;;;;;;;;;;5126326;27;20400;-32
2022/05/03 07:31:33;;;;;;;36.95;28.70;;;;;;;;;;5110936;28;20400;-30
2022/05/03 07:33:59;;;;;;;41.35;29.48;;;;;;;;;;5108577;28;20046;-31
2022/05/03 07:36:28;;;;;;;40.40;28.38;;;;;;;;;;5110809;27;20042;-30
2022/05/03 07:38:54;;;;;;;37.80;27.65;;;;;;;;;;5118310;28;20088;-31
2022/05/03 07:41:20;;;;;;;36.25;27.80;;;;;;;;;;5114711;28;20039;-30
2022/05/03 07:43:46;;;;;;;42.33;28.77;;;;;;;;;;5114766;28;20039;-31
2022/05/03 07:46:12;;;;;;;40.28;28.48;;;;;;;;;;5115214;28;20039;-32
2022/05/03 07:48:38;;;;;;;39.65;29.15;;;;;;;;;;5107931;28;20490;-29
2022/05/03 07:51:04;;;;;;;46.67;30.77;;;;;;;;;;5098979;28;20044;-31
2022/05/03 07:53:30;;;;;;;44.30;29.83;;;;;;;;;;5110995;28;20088;-31
2022/05/03 07:55:57;;;;;;;43.28;29.13;;;;;;;;;;5094660;28;20036;-30
2022/05/03 07:58:23;;;;;;;47.55;29.63;;;;;;;;;;5094915;28;20063;-31
2022/05/03 08:00:49;;;;;;;48.75;32.10;;;;;;;;;;5094719;28;20036;-31
2022/05/03 08:03:16;;;;;;;49.38;30.20;;;;;;;;;;5094423;28;20032;-31
2022/05/03 08:05:43;;;;;;;53.45;32.05;;;;;;;;;;5114780;28;20408;-30
2022/05/03 08:08:09;;;;;;;53.47;32.22;;;;;;;;;;5115033;28;20046;-29
2022/05/03 08:10:35;;;;;;;54.25;30.17;;;;;;;;;;5100213;28;20089;-31
2022/05/03 08:13:01;;;;;;;57.75;31.48;;;;;;;;;;5110619;28;20066;-30
2022/05/03 08:15:27;;;;;;;54.78;29.77;;;;;;;;;;5094651;28;20071;-29
2022/05/03 08:17:53;;;;;;;60.35;32.92;;;;;;;;;;5093570;28;20075;-29
2022/05/03 08:20:20;;;;;;;62.25;32.53;;;;;;;;;;5104362;27;20068;-30
2022/05/03 08:22:46;;;;;;;67.47;34.47;;;;;;;;;;5103722;27;20045;-29
2022/05/03 08:25:12;;;;;;;65.60;33.97;;;;;;;;;;5103982;27;20492;-30
2022/05/03 08:27:41;;;;;;;58.47;31.33;;;;;;;;;;5110807;28;20043;-30
2022/05/03 08:30:08;;;;;;;51.20;28.88;;;;;;;;;;5100703;28;20039;-30
2022/05/03 08:32:34;;;;;;;55.63;29.73;;;;;;;;;;5092740;28;20036;-29
2022/05/03 08:35:00;;;;;;;44.67;27.92;;;;;;;;;;5105904;27;20096;-34
2022/05/03 08:42:57;;;;;;;45.80;26.83;;;;;;;;;;5115245;27;20049;-31
2022/05/03 08:45:24;;;;;;;37.10;25.05;;;;;;;;;;5084910;28;20503;-31
2022/05/03 08:47:50;;;;;;;44.00;26.63;;;;;;;;;;5099318;27;20467;-29
2022/05/03 08:50:20;;;;;;;38.58;24.38;;;;;;;;;;5092116;27;20046;-29
2022/05/03 08:53:03;;;;;;;36.05;22.52;;;;;;;;;;5095049;28;20544;-29
2022/05/03 08:55:30;;;;;;;32.40;21.63;;;;;;;;;;5098848;28;20034;-30
2022/05/03 08:57:56;;;;;;;31.83;20.88;;;;;;;;;;5102031;27;20390;-29
2022/05/03 09:00:23;;;;;;;34.38;21.52;;;;;;;;;;5120180;27;20092;-30
2022/05/03 09:02:51;;;;;;;31.05;20.08;;;;;;;;;;5134657;27;20088;-29
2022/05/03 09:05:18;;;;;;;26.35;19.33;;;;;;;;;;5116654;27;20438;-31
2022/05/03 09:07:51;;;;;;;26.80;18.00;;;;;;;;;;5113445;28;20047;-29
2022/05/03 09:10:18;;;;;;;27.27;18.13;;;;;;;;;;5113412;28;20118;-31
2022/05/03 09:12:45;;;;;;;26.67;18.80;;;;;;;;;;5112446;28;20126;-29
2022/05/03 09:15:14;;;;;;;22.65;16.63;;;;;;;;;;5111684;28;20042;-29
2022/05/03 09:17:42;;;;;;;21.67;15.65;;;;;;;;;;5096125;28;20378;-30
2022/05/03 09:25:51;;;;;;;16.98;13.25;;;;;;;;;;5101657;27;20131;-29
2022/05/03 09:28:19;;;;;;;20.23;12.82;;;;;;;;;;5059007;28;20039;-29
2022/05/03 09:30:47;;;;;;;18.17;13.00;;;;;;;;;;5101950;28;20036;-29
2022/05/03 09:33:20;;;;;;;16.15;11.25;;;;;;;;;;5078230;28;20370;-29
2022/05/03 09:35:46;;;;;;;14.13;10.27;;;;;;;;;;5083995;28;20035;-31
2022/05/03 09:38:13;;;;;;;11.30;8.90;;;;;;;;;;5113632;28;20035;-33
2022/05/03 09:40:40;;;;;;;14.35;8.23;;;;;;;;;;5086232;28;20043;-29
2022/05/03 09:43:06;;;;;;;8.75;7.47;;;;;;;;;;5093245;28;20173;-30
2022/05/03 09:45:33;;;;;;;9.35;7.45;;;;;;;;;;5091932;28;20047;-29
2022/05/03 09:48:00;;;;;;;8.55;6.80;;;;;;;;;;5091891;28;20048;-29
2022/05/03 09:50:43;;;;;;;8.57;6.45;;;;;;;;;;5074908;28;20596;-30
2022/05/03 09:53:09;;;;;;;10.82;7.18;;;;;;;;;;5073771;28;20036;-30
2022/05/03 09:55:39;;;;;;;10.05;6.97;;;;;;;;;;5107296;28;20314;-32
2022/05/03 09:58:09;;;;;;;9.48;6.88;;;;;;;;;;5113711;28;20401;-27
2022/05/03 10:00:36;;;;;;;7.95;6.43;;;;;;;;;;5095037;28;20445;-27
2022/05/03 10:03:04;;;;;;;9.10;6.45;;;;;;;;;;5111628;28;20396;-30
2022/05/03 10:05:30;;;;;;;12.68;8.10;;;;;;;;;;5113615;28;20070;-25
2022/05/03 10:07:57;;;;;;;10.73;6.57;;;;;;;;;;5095159;28;20047;-26
2022/05/03 10:10:24;;;;;;;9.95;7.32;;;;;;;;;;5113703;28;20227;-28
2022/05/03 10:12:50;;;;;;;11.10;7.35;;;;;;;;;;5113028;28;20047;-26
2022/05/03 10:20:56;;;;;;;12.40;7.20;;;;;;;;;;5112805;28;20043;-26
2022/05/03 10:23:23;;;;;;;14.18;7.85;;;;;;;;;;5112553;28;20041;-27
2022/05/03 10:25:57;;;;;;;11.23;8.05;;;;;;;;;;5112529;28;20047;-26
2022/05/03 10:28:23;;;;;;;;;;;;;;;;;;5112625;28;20040;-26
2022/05/03 10:31:07;;;;;;;14.27;8.40;;;;;;;;;;5112542;28;20387;-25
2022/05/03 10:33:35;;;;;;;;;;;;;;;;;;5113100;28;20032;-26
2022/05/03 10:36:02;;;;;;;13.05;7.50;;;;;;;;;;5112159;28;19923;-25
2022/05/03 10:38:44;;;;;;;18.17;9.40;;;;;;;;;;5111253;28;20126;-26
2022/05/03 10:41:14;;;;;;;15.20;8.45;;;;;;;;;;5112541;28;20561;-25
2022/05/03 10:43:40;;;;;;;16.77;8.23;;;;;;;;;;5112698;28;20405;-26
2022/05/03 10:46:14;;;;;;;18.30;9.55;;;;;;;;;;5087582;28;20132;-28
2022/05/03 10:48:41;;;;;;;19.10;9.63;;;;;;;;;;5093110;28;20554;-26
2022/05/03 10:51:12;;;;;;;21.88;9.88;;;;;;;;;;5075011;28;20032;-26
2022/05/03 10:53:40;;;;;;;18.15;9.65;;;;;;;;;;5092819;28;20089;-25
2022/05/03 10:56:22;;;;;;;18.90;8.55;;;;;;;;;;5093001;28;20042;-25
2022/05/03 10:59:05;;;;;;;18.92;9.35;;;;;;;;;;5091224;28;20127;-26
2022/05/03 11:01:31;;;;;;;23.53;9.10;;;;;;;;;;5074671;28;20040;-26
2022/05/03 11:04:00;;;;;;;17.50;8.85;;;;;;;;;;5073854;28;20286;-26
2022/05/03 11:06:26;;;;;;;21.52;8.52;;;;;;;;;;5092299;28;20463;-26
2022/05/03 11:08:59;;;;;;;21.55;8.48;;;;;;;;;;5074048;28;20062;-26
2022/05/03 11:11:50;;;;;;;19.27;8.10;;;;;;;;;;5092217;28;20036;-27
2022/05/03 11:14:21;;;;;;;15.27;7.68;;;;;;;;;;5092385;28;20440;-25
2022/05/03 11:16:48;;;;;;;15.15;6.72;;;;;;;;;;5095806;28;20065;-26
2022/05/03 11:19:18;;;;;;;14.35;7.88;;;;;;;;;;5096342;28;20101;-27
2022/05/03 11:21:45;;;;;;;11.45;6.50;;;;;;;;;;5094693;28;20079;-27
2022/05/03 11:24:17;;;;;;;15.35;6.57;;;;;;;;;;5095752;28;20047;-26
2022/05/03 11:26:44;;;;;;;18.95;6.97;;;;;;;;;;5094612;28;20102;-27
2022/05/03 11:29:12;;;;;;;13.30;6.22;;;;;;;;;;5077683;28;20520;-26
2022/05/03 11:31:38;;;;;;;12.68;6.22;;;;;;;;;;5077672;28;20048;-28
2022/05/03 11:34:06;;;;;;;12.50;6.32;;;;;;;;;;5094566;28;20076;-28
2022/05/03 11:36:33;;;;;;;12.70;5.68;;;;;;;;;;5094560;28;20044;-26
2022/05/03 11:39:03;;;;;;;11.52;6.25;;;;;;;;;;5094305;28;20062;-27
2022/05/03 11:41:29;;;;;;;11.43;6.18;;;;;;;;;;5094398;28;20032;-26
2022/05/03 11:43:56;;;;;;;10.02;6.03;;;;;;;;;;5095603;28;20085;-26
2022/05/03 11:46:23;;;;;;;10.35;6.03;;;;;;;;;;5095926;28;20565;-27
2022/05/03 11:48:54;;;;;;;10.18;6.03;;;;;;;;;;5094183;28;20520;-27
2022/05/03 11:57:05;;;;;;;8.93;5.20;;;;;;;;;;5094891;28;20040;-27
2022/05/03 11:59:31;;;;;;;12.77;5.55;;;;;;;;;;5094494;28;20036;-26
2022/05/03 12:02:20;;;;;;;13.05;6.18;;;;;;;;;;5094533;28;20039;-27
2022/05/03 12:05:04;;;;;;;11.80;6.63;;;;;;;;;;5094631;28;20131;-27
2022/05/03 12:07:35;;;;;;;11.63;5.82;;;;;;;;;;5095037;28;20142;-30
2022/05/03 12:10:01;;;;;;;8.80;4.75;;;;;;;;;;5102174;28;20047;-30
2022/05/03 12:12:43;;;;;;;9.68;4.82;;;;;;;;;;5112899;28;20108;-32
2022/05/03 12:15:35;;;;;;;10.55;5.15;;;;;;;;;;5113931;28;20036;-30
2022/05/03 12:18:10;;;;;;;13.00;5.18;;;;;;;;;;5104674;28;20044;-29
2022/05/03 12:20:48;;;;;;;10.95;4.85;;;;;;;;;;5113669;28;20050;-30
2022/05/03 12:23:17;;;;;;;7.25;4.00;;;;;;;;;;5112387;28;20039;-33
2022/05/03 12:25:44;;;;;;;9.52;4.63;;;;;;;;;;5113089;28;20074;-30
2022/05/03 12:28:11;;;;;;;10.82;5.10;;;;;;;;;;5101220;28;20044;-30
2022/05/03 12:30:37;;;;;;;10.35;4.60;;;;;;;;;;5092809;28;20506;-30
2022/05/03 12:33:04;;;;;;;8.93;4.68;;;;;;;;;;5100570;27;20058;-32
2022/05/03 12:35:31;;;;;;;8.80;4.57;;;;;;;;;;5133713;27;20034;-31
2022/05/03 12:37:58;;;;;;;9.32;4.53;;;;;;;;;;5124598;27;20524;-29
2022/05/03 12:40:25;;;;;;;8.05;4.43;;;;;;;;;;5098096;27;20046;-30
2022/05/03 12:42:51;;;;;;;11.80;4.40;;;;;;;;;;5109871;27;20039;-29
2022/05/03 12:45:21;;;;;;;11.50;4.72;;;;;;;;;;5126747;27;20484;-28
2022/05/03 12:47:48;;;;;;;12.23;4.93;;;;;;;;;;5122801;27;20066;-29
2022/05/03 12:50:15;;;;;;;9.50;4.53;;;;;;;;;;5093340;28;20035;-30
2022/05/03 12:52:41;;;;;;;11.57;4.57;;;;;;;;;;5092259;28;20513;-29
2022/05/03 12:55:07;;;;;;;6.95;4.05;;;;;;;;;;5092095;28;20036;-29
2022/05/03 13:00:18;;;;;;;8.00;3.95;;;;;;;;;;5092546;28;20040;-31
2022/05/03 13:02:44;;;;;;;12.27;4.70;;;;;;;;;;5100116;27;20059;-29
2022/05/03 13:05:10;;;;;;;9.15;4.13;;;;;;;;;;5133378;27;20043;-29
2022/05/03 13:07:36;;;;;;;7.80;3.70;;;;;;;;;;5129801;27;20535;-30
2022/05/03 13:10:04;;;;;;;8.95;4.20;;;;;;;;;;5112280;28;20191;-31
2022/05/03 13:12:30;;;;;;;9.00;4.25;;;;;;;;;;5110489;28;20054;-31
2022/05/03 13:14:56;;;;;;;7.40;3.88;;;;;;;;;;5110218;28;20039;-31
2022/05/03 13:17:22;;;;;;;10.52;4.68;;;;;;;;;;5112457;28;20067;-31
2022/05/03 13:19:48;;;;;;;6.97;4.07;;;;;;;;;;5101905;28;20060;-32
2022/05/03 13:22:14;;;;;;;11.15;4.65;;;;;;;;;;5099950;28;20046;-30
2022/05/03 13:24:40;;;;;;;12.70;4.28;;;;;;;;;;5103872;28;20563;-30
2022/05/03 13:27:07;;;;;;;17.90;4.30;;;;;;;;;;5101625;28;20409;-30
2022/05/03 13:29:33;;;;;;;8.32;3.60;;;;;;;;;;5108469;28;20084;-31
2022/05/03 13:32:02;;;;;;;9.65;3.67;;;;;;;;;;5111638;28;20123;-29
2022/05/03 13:34:28;;;;;;;9.25;3.92;;;;;;;;;;5111307;28;20043;-29
2022/05/03 13:42:24;;;;;;;5.45;3.67;;;;;;;;;;5091315;28;20093;-30
2022/05/03 13:44:50;;;;;;;6.18;3.40;;;;;;;;;;5091619;28;20043;-30
2022/05/03 13:47:16;;;;;;;7.25;2.95;;;;;;;;;;5091459;28;20455;-30
2022/05/03 13:49:43;;;;;;;8.40;3.67;;;;;;;;;;5091922;28;20040;-29
2022/05/03 13:52:09;;;;;;;6.53;2.97;;;;;;;;;;5099059;28;20493;-30
2022/05/03 13:54:35;;;;;;;7.53;3.25;;;;;;;;;;5100699;28;20123;-31
2022/05/03 13:57:01;;;;;;;8.35;2.90;;;;;;;;;;5091502;28;20036;-30
2022/05/03 13:59:27;;;;;;;10.27;2.78;;;;;;;;;;5099592;28;20032;-30
2022/05/03 14:01:54;;;;;;;7.53;3.33;;;;;;;;;;5109826;28;20051;-30
2022/05/03 14:04:20;;;;;;;8.20;2.95;;;;;;;;;;5110911;28;20412;-29
2022/05/03 14:06:46;;;;;;;5.07;2.58;;;;;;;;;;5105664;28;20390;-29
2022/05/03 14:09:12;;;;;;;5.82;2.80;;;;;;;;;;5097530;28;20499;-30
2022/05/03 14:11:38;;;;;;;6.75;2.50;;;;;;;;;;5105507;28;20047;-29
2022/05/03 14:14:04;;;;;;;7.90;3.03;;;;;;;;;;5092495;28;20031;-29
2022/05/03 14:16:30;;;;;;;4.78;2.78;;;;;;;;;;5091390;28;20093;-29
2022/05/03 14:18:58;;;;;;;6.18;2.47;;;;;;;;;;5090949;28;20141;-28
2022/05/03 14:21:24;;;;;;;9.98;2.97;;;;;;;;;;5089747;28;20040;-29
2022/05/03 14:23:51;;;;;;;5.93;2.63;;;;;;;;;;5090922;28;20113;-29
2022/05/03 14:26:17;;;;;;;5.68;2.75;;;;;;;;;;5106293;28;20043;-30
2022/05/03 14:28:44;;;;;;;5.53;2.53;;;;;;;;;;5110752;28;20108;-30
2022/05/03 14:31:11;;;;;;;4.80;2.88;;;;;;;;;;5101154;28;20257;-29
2022/05/03 14:33:37;;;;;;;6.72;2.85;;;;;;;;;;5090345;28;20044;-29
2022/05/03 14:36:03;;;;;;;8.20;2.78;;;;;;;;;;5104148;28;20160;-31
2022/05/03 14:38:29;;;;;;;8.18;2.80;;;;;;;;;;5111324;28;20066;-29
2022/05/03 14:40:56;;;;;;;6.78;2.35;;;;;;;;;;5108249;28;20076;-30
2022/05/03 14:43:22;;;;;;;7.43;2.60;;;;;;;;;;5110869;28;20039;-32
2022/05/03 14:45:48;;;;;;;6.03;2.53;;;;;;;;;;5108133;28;20092;-30
2022/05/03 14:48:15;;;;;;;5.90;2.40;;;;;;;;;;5095182;28;20496;-28
2022/05/03 14:50:41;;;;;;;6.30;2.50;;;;;;;;;;5100619;28;20050;-29
2022/05/03 14:53:07;;;;;;;6.28;2.75;;;;;;;;;;5114371;28;20075;-30
2022/05/03 14:55:33;;;;;;;4.95;2.50;;;;;;;;;;5096819;28;20446;-30
2022/05/03 15:03:29;;;;;;;7.22;3.00;;;;;;;;;;5100705;28;20043;-29
2022/05/03 15:05:55;;;;;;;5.75;2.55;;;;;;;;;;5102052;28;20063;-30
2022/05/03 15:08:22;;;;;;;6.90;3.13;;;;;;;;;;5102206;28;20040;-30
2022/05/03 15:10:48;;;;;;;5.70;2.70;;;;;;;;;;5107594;28;20122;-30
2022/05/03 15:13:14;;;;;;;5.43;2.75;;;;;;;;;;5113918;28;20036;-30
2022/05/03 15:15:43;;;;;;;6.57;2.65;;;;;;;;;;5094821;28;20040;-30
2022/05/03 15:18:09;;;;;;;7.30;3.03;;;;;;;;;;5095211;28;20046;-29
2022/05/03 15:20:37;;;;;;;3.85;2.78;;;;;;;;;;5111387;28;20417;-29
2022/05/03 15:25:49;;;;;;;6.65;2.65;;;;;;;;;;5096030;27;20105;-30
2022/05/03 15:28:16;;;;;;;10.00;2.65;;;;;;;;;;5094421;28;20075;-29
2022/05/03 15:30:44;;;;;;;4.97;2.95;;;;;;;;;;5094361;28;20048;-30
2022/05/03 15:33:11;;;;;;;6.15;2.58;;;;;;;;;;5093024;28;20073;-30